首页
METAR-TAF:

METAR-TAF

机场 :

彼得斯堡, 阿拉斯加州, 美国

纬度: 56-49N, 经度: 132-58W, 海拔: 0米

当前天气观测

该预报发布于17分钟前的18:38 UTC
风速5节,风向东北
温度 1°C
湿度 93%
气压 1020 hPa
能見度: 1.2公里
散云层高于400英尺
阴天层高于1100英尺
小雪, 轻雾

METAR: PAPG 101838Z 04005KT 3/4SM -SN BR SCT004 OVC011 01/00 A3013 RMK AO2 UPB32E38SNE32B38 P0002

时间: 10:55 (18:55 UTC)

预报

该预报发布于1小时和31分钟前的17:24 UTC
预报有效从10日的 18点(UTC)到 11日的 18点(UTC)
风速8节,风向东转东北
能見度: 9.7公里
多云层高于2500英尺
阴天层高于3500英尺
小阵雪, 轻雾
短暂存在
从 10日的 18点(UTC)到 10日的 22点(UTC)
能見度: 2.4公里
多云层高于1000英尺
阴天层高于2500英尺
小阵雪, 轻雾
从 10日的 2200点(UTC)
风速7节,风向
能見度: 10公里
多云层高于2500英尺
阴天层高于3500英尺
小阵雪
短暂存在
从 10日的 22点(UTC)到 11日的 02点(UTC)
能見度: 1.6公里
小阵雪, 轻雾
从 11日的 0300点(UTC)
风速3节,风向东转东北
能見度: 10公里
散云层高于2500英尺
阴天层高于5000英尺
附近有阵雨

TAF: PAPG 101724Z 1018/1118 07008KT 6SM -SHSN BR BKN025 OVC035 TEMPO 1018/1022 1 1/2SM -SHSN BR BKN010 OVC025 FM102200 08007KT P6SM -SHSN BKN025 OVC035 TEMPO 1022/1102 3SM -SHSN BR FM110300 06003KT P6SM VCSH SCT025 OVC050 AMD LTD TO CLD VIS AND WIND 1106/1115

超过4000个机场的气象观测和天气预报(METAR&TAF报告)。

可查询的气象台以黄色和红色小点在地图上表示。

将鼠标移到小点上方,可查看气象台名称。

然后点击查看天气观测和预报。

如需切换地图:点击带黑十字的绿色按钮放大地图;点击带横线的绿色按钮缩小地图;或者点击绿色箭头查看邻近地区的地图。


METAR-TAF: